Time;durP1;ratioP1;P1;durP2;ratioP2;P2;SDS_P1;SDS_P2;PMS_P1;PMS_P2;Temp;Humidity;BMP_temperature;BMP_pressure;BME280_temperature;BME280_humidity;BME280_pressure;Samples;Min_cycle;Max_cycle;Signal;HPM_P1;HPM_P2
2022/01/25 00:25:10;;;;;;;17.90;12.30;;;;;;;11.81;63.20;102685.69;5012897;28;20410;-71
2022/01/25 00:28:16;;;;;;;19.50;11.23;;;;;;;11.81;63.19;102683.78;5016104;28;20057;-70
2022/01/25 00:31:18;;;;;;;32.83;17.38;;;;;;;11.83;62.25;102678.88;5040681;28;20103;-69
2022/01/25 00:34:04;;;;;;;29.25;18.23;;;;;;;11.79;59.84;102672.31;5059993;28;20033;-73
2022/01/25 00:36:48;;;;;;;23.45;13.90;;;;;;;11.79;61.09;102683.22;5062383;28;20492;-70
2022/01/25 00:39:37;;;;;;;24.90;15.57;;;;;;;11.72;57.64;102671.78;5055776;28;20488;-71
2022/01/25 00:42:22;;;;;;;21.15;14.20;;;;;;;11.76;60.77;102674.78;5039831;28;20045;-71
2022/01/25 00:45:10;;;;;;;14.77;9.05;;;;;;;11.76;62.29;102677.53;5037564;28;20055;-71
2022/01/25 00:47:55;;;;;;;28.75;16.35;;;;;;;11.79;61.16;102671.50;5036041;28;20040;-71
2022/01/25 00:50:41;;;;;;;16.08;9.18;;;;;;;11.78;62.34;102669.91;5042062;28;20080;-71
2022/01/25 00:56:32;;;;;;;22.52;13.90;;;;;;;11.77;61.01;102674.53;5060608;28;20056;-70
2022/01/25 00:59:22;;;;;;;17.65;11.18;;;;;;;11.77;61.88;102679.16;5058841;28;20052;-70
2022/01/25 01:02:10;;;;;;;36.00;20.23;;;;;;;11.72;59.28;102677.22;5056118;28;20040;-70
2022/01/25 01:04:54;;;;;;;29.73;17.98;;;;;;;11.70;57.68;102673.13;5057887;28;20064;-70
2022/01/25 01:07:41;;;;;;;12.63;8.48;;;;;;;11.72;61.22;102676.41;5058464;28;20489;-71
2022/01/25 01:10:27;;;;;;;32.63;18.50;;;;;;;11.70;58.38;102678.56;5056523;28;20428;-71
2022/01/25 01:16:29;;;;;;;32.85;15.10;;;;;;;11.57;53.95;102688.13;5054921;28;20059;-71
2022/01/25 01:49:00;;;;;;;24.38;15.02;;;;;;;11.59;59.21;102680.50;5038884;28;20045;-70
2022/01/25 01:51:48;;;;;;;23.48;15.35;;;;;;;11.61;59.62;102683.78;5036537;28;20085;-70
2022/01/25 01:54:34;;;;;;;31.67;18.52;;;;;;;11.59;59.08;102677.78;5017879;28;20426;-70
2022/01/25 01:57:19;;;;;;;26.75;16.95;;;;;;;11.58;58.06;102676.13;5018787;28;20635;-70
2022/01/25 02:00:06;;;;;;;23.95;14.60;;;;;;;11.55;58.64;102671.25;5016874;28;20434;-70
2022/01/25 02:02:57;;;;;;;29.95;18.08;;;;;;;11.54;58.38;102672.31;5023552;28;20029;-71
2022/01/25 02:05:43;;;;;;;36.40;21.50;;;;;;;11.53;57.31;102674.22;5054617;28;20053;-71
2022/01/25 02:08:28;;;;;;;23.60;14.35;;;;;;;11.56;59.07;102672.88;5056103;28;20053;-71
2022/01/25 02:11:13;;;;;;;22.92;12.35;;;;;;;11.55;59.42;102665.78;5054093;28;20045;-71
2022/01/25 02:14:04;;;;;;;30.17;18.02;;;;;;;11.51;57.68;102665.53;5056058;28;20056;-71
2022/01/25 02:22:37;;;;;;;24.10;14.95;;;;;;;11.53;59.95;102660.59;5037127;28;20045;-71
2022/01/25 02:25:22;;;;;;;;;;;;;;;11.53;59.61;102666.06;5035302;28;20045;-71
2022/01/25 02:28:07;;;;;;;29.83;18.15;;;;;;;11.51;58.36;102654.63;5013864;28;19917;-70
2022/01/25 02:30:53;;;;;;;36.30;28.67;;;;;;;11.46;57.43;102648.38;5025906;28;20045;-70
2022/01/25 02:33:38;;;;;;;34.80;20.83;;;;;;;11.49;57.78;102653.25;5035152;28;20048;-70
2022/01/25 02:36:28;;;;;;;33.50;21.15;;;;;;;11.49;57.55;102645.91;5033486;28;20048;-70
2022/01/25 02:39:12;;;;;;;37.25;20.95;;;;;;;11.46;57.70;102642.91;5039874;28;20497;-70
2022/01/25 02:41:58;;;;;;;25.65;15.65;;;;;;;11.44;57.94;102639.63;5052937;28;20408;-71
2022/01/25 02:44:44;;;;;;;28.42;18.77;;;;;;;11.43;58.63;102644.25;5053004;28;20469;-71
2022/01/25 02:50:32;;;;;;;22.88;12.48;;;;;;;11.45;58.80;102636.66;5054403;28;20413;-71
2022/01/25 02:53:17;;;;;;;25.92;16.67;;;;;;;11.46;58.77;102640.19;5057948;28;20403;-71
2022/01/25 02:56:02;;;;;;;;;;;;;;;11.47;58.66;102641.84;5055872;28;20051;-71
2022/01/25 02:58:47;;;;;;;22.13;14.95;;;;;;;11.48;59.94;102643.44;5043460;28;19913;-71
2022/01/25 03:01:34;;;;;;;18.08;10.98;;;;;;;11.48;61.77;102635.28;5038163;28;20041;-71
2022/01/25 03:04:21;;;;;;;31.63;20.50;;;;;;;11.45;59.92;102630.38;5036053;28;20405;-71
2022/01/25 03:07:08;;;;;;;38.28;24.00;;;;;;;11.43;58.56;102629.81;5034265;28;20417;-71
2022/01/25 03:09:53;;;;;;;40.33;22.92;;;;;;;11.38;56.67;102632.56;5038399;28;20048;-70
2022/01/25 03:12:49;;;;;;;32.10;19.65;;;;;;;11.34;56.77;102623.31;5036049;28;20034;-70
2022/01/25 03:21:35;;;;;;;29.17;19.85;;;;;;;11.25;56.25;102628.50;5035015;28;20508;-69
2022/01/25 03:24:20;;;;;;;33.58;20.02;;;;;;;11.24;56.28;102620.59;5036741;28;20497;-69
2022/01/25 03:27:05;;;;;;;23.52;13.13;;;;;;;11.27;59.25;102628.22;5036277;28;20045;-70
2022/01/25 03:29:50;;;;;;;14.95;9.38;;;;;;;11.29;59.80;102626.03;5016967;28;20049;-70
2022/01/25 03:32:35;;;;;;;22.17;14.55;;;;;;;11.30;60.12;102624.94;5032544;28;20401;-70
2022/01/25 03:35:20;;;;;;;30.58;15.70;;;;;;;11.26;58.74;102623.88;5033814;28;20045;-69
2022/01/25 03:38:05;;;;;;;32.05;20.08;;;;;;;11.23;57.47;102627.94;5034855;28;20048;-69
2022/01/25 03:40:49;;;;;;;26.55;15.32;;;;;;;11.21;57.66;102621.97;5032703;28;20046;-69
2022/01/25 03:43:35;;;;;;;;;;;;;;;11.21;58.30;102627.41;5036308;28;20048;-70
2022/01/25 03:47:12;;;;;;;22.30;13.57;;;;;;;11.21;58.77;102618.41;5032673;28;19917;-69
2022/01/25 03:52:35;;;;;;;38.42;16.55;;;;;;;11.24;60.10;102626.03;5054501;28;20041;-69
2022/01/25 03:55:20;;;;;;;122.90;31.48;;;;;;;11.26;60.58;102623.88;5052542;28;20045;-72
2022/01/25 03:58:05;;;;;;;;;;;;;;;11.24;59.97;102620.59;5058846;28;20041;-70
2022/01/25 04:00:50;;;;;;;146.73;33.50;;;;;;;11.21;58.79;102615.69;5037361;28;19913;-70
2022/01/25 04:03:41;;;;;;;142.70;36.42;;;;;;;11.22;59.54;102622.78;5018514;28;20625;-70
2022/01/25 04:06:31;;;;;;;91.85;32.08;;;;;;;11.24;60.11;102618.69;5028716;28;20045;-70
2022/01/25 04:09:16;;;;;;;116.32;28.70;;;;;;;11.25;61.01;102619.50;5034988;28;20049;-69
2022/01/25 04:12:01;;;;;;;101.93;26.15;;;;;;;11.27;61.62;102620.06;5033961;28;20046;-71
2022/01/25 04:14:46;;;;;;;65.20;25.20;;;;;;;11.24;59.89;102615.13;5037332;28;20029;-71
2022/01/25 04:17:33;;;;;;;55.15;18.85;;;;;;;11.21;59.62;102611.06;5054013;28;20053;-70
2022/01/25 04:20:25;;;;;;;63.03;21.77;;;;;;;11.23;60.72;102610.78;5045336;28;20057;-71
2022/01/25 04:26:13;;;;;;;51.28;21.90;;;;;;;11.20;59.70;102612.16;5053341;28;20041;-70
2022/01/25 04:28:58;;;;;;;37.30;18.33;;;;;;;11.18;59.02;102611.59;5058290;28;20040;-70
2022/01/25 04:31:43;;;;;;;34.55;16.95;;;;;;;11.19;58.69;102609.69;5042403;28;20584;-70
2022/01/25 04:49:33;;;;;;;36.60;19.33;;;;;;;11.08;58.38;102587.09;5032093;28;20045;-70
2022/01/25 04:52:20;;;;;;;41.17;21.60;;;;;;;11.07;58.34;102590.94;5050041;28;20052;-70
2022/01/25 04:57:57;;;;;;;37.03;21.15;;;;;;;11.05;57.18;102587.66;5051910;28;20045;-70
2022/01/25 05:00:42;;;;;;;31.27;17.80;;;;;;;11.04;58.24;102589.56;5058265;28;20052;-71
2022/01/25 05:03:39;;;;;;;26.83;16.98;;;;;;;10.97;57.39;102591.72;5053296;28;20041;-70
2022/01/25 05:06:25;;;;;;;31.48;16.30;;;;;;;10.99;58.24;102591.44;5057135;28;20048;-71
2022/01/25 05:09:12;;;;;;;30.90;15.60;;;;;;;10.98;58.49;102585.19;5055194;28;20048;-71
2022/01/25 05:11:58;;;;;;;40.78;23.70;;;;;;;10.95;57.43;102585.75;5030794;28;20045;-69
2022/01/25 05:18:10;;;;;;;37.00;20.13;;;;;;;10.94;58.46;102580.56;5031565;28;20494;-70
2022/01/25 05:23:58;;;;;;;25.08;15.73;;;;;;;10.94;58.87;102581.38;5040192;28;20493;-70
2022/01/25 05:26:43;;;;;;;25.58;13.98;;;;;;;10.95;58.89;102571.31;5041240;28;20052;-70
2022/01/25 05:29:28;;;;;;;25.02;13.27;;;;;;;10.93;58.00;102571.56;5034870;28;20045;-69
2022/01/25 05:32:13;;;;;;;36.75;21.75;;;;;;;10.90;56.77;102568.59;5038581;28;20046;-70
2022/01/25 05:34:58;;;;;;;;;;;;;;;10.93;58.42;102566.13;5036943;28;20406;-69
2022/01/25 05:37:43;;;;;;;32.67;15.98;;;;;;;10.93;59.00;102563.41;5034670;28;19917;-70
2022/01/25 05:40:41;;;;;;;33.80;17.40;;;;;;;10.90;58.26;102561.25;5030520;28;20038;-70
2022/01/25 05:46:20;;;;;;;35.80;14.57;;;;;;;10.91;60.01;102562.06;5039527;28;20045;-69
2022/01/25 05:49:05;;;;;;;30.98;16.33;;;;;;;10.91;60.35;102556.63;5037516;28;20048;-69
2022/01/25 05:51:50;;;;;;;24.73;12.00;;;;;;;10.90;59.57;102557.72;5040860;28;20052;-70
2022/01/25 05:54:36;;;;;;;46.60;22.67;;;;;;;10.91;59.78;102552.00;5038136;28;20404;-69
2022/01/25 05:57:21;;;;;;;29.95;16.63;;;;;;;10.90;60.24;102554.97;5040649;28;20041;-69
2022/01/25 06:00:08;;;;;;;19.38;11.52;;;;;;;10.91;60.60;102553.91;5035607;28;20044;-69
2022/01/25 06:02:55;;;;;;;26.55;15.50;;;;;;;10.90;60.77;102550.34;5034024;28;20501;-69
2022/01/25 06:05:40;;;;;;;32.35;15.73;;;;;;;10.92;60.74;102550.88;5014994;28;20042;-71
2022/01/25 06:08:25;;;;;;;53.75;28.92;;;;;;;10.86;59.51;102552.00;5020884;28;20050;-70
2022/01/25 06:11:10;;;;;;;27.42;13.40;;;;;;;10.89;60.15;102554.16;5016703;28;20038;-69
2022/01/25 06:13:55;;;;;;;25.15;13.20;;;;;;;10.88;60.51;102557.16;5027048;28;20048;-70
2022/01/25 06:16:40;;;;;;;42.42;21.65;;;;;;;10.84;59.65;102548.72;5041284;28;20509;-70
2022/01/25 06:19:24;;;;;;;45.08;24.15;;;;;;;10.73;58.18;102549.78;5037477;28;20417;-70
2022/01/25 06:22:09;;;;;;;45.15;24.65;;;;;;;10.48;55.87;102552.50;5056769;28;20049;-69
2022/01/25 06:24:54;;;;;;;39.83;23.15;;;;;;;10.43;55.27;102549.75;5055381;28;20417;-72
2022/01/25 06:27:42;;;;;;;52.63;26.88;;;;;;;10.40;54.75;102555.75;5053179;28;20048;-70
2022/01/25 06:30:27;;;;;;;68.40;34.45;;;;;;;10.38;54.22;102555.19;5055361;28;20398;-70
2022/01/25 06:33:12;;;;;;;47.45;23.70;;;;;;;10.22;54.32;102549.72;5039401;28;20033;-69
2022/01/25 06:35:57;;;;;;;49.20;20.13;;;;;;;10.41;58.67;102557.38;5052987;28;20064;-70
2022/01/25 06:38:42;;;;;;;46.05;18.23;;;;;;;10.51;59.88;102552.78;5021587;28;20045;-69
2022/01/25 06:41:27;;;;;;;58.65;23.52;;;;;;;10.58;59.87;102557.94;5035486;28;20076;-69
2022/01/25 06:44:12;;;;;;;51.30;24.98;;;;;;;10.60;59.24;102558.50;5029938;28;20041;-69
2022/01/25 06:46:57;;;;;;;42.42;22.70;;;;;;;10.59;57.38;102554.16;5033968;28;20034;-69
2022/01/25 06:49:42;;;;;;;;;;;;;;;10.58;57.21;102553.31;5031029;28;20029;-69
2022/01/25 06:52:26;;;;;;;62.33;25.30;;;;;;;10.56;56.97;102555.50;5022433;28;19918;-69
2022/01/25 06:55:17;;;;;;;46.42;21.45;;;;;;;10.60;57.52;102547.63;5015100;28;20510;-69
2022/01/25 06:58:01;;;;;;;56.78;26.48;;;;;;;10.60;57.80;102555.78;5016424;28;20038;-70
2022/01/25 07:00:46;;;;;;;51.97;24.45;;;;;;;10.57;57.45;102550.88;5014452;28;20045;-69
2022/01/25 07:03:31;;;;;;;;;;;;;;;10.59;57.72;102554.16;5018286;28;20430;-69
2022/01/25 07:06:16;;;;;;;51.40;26.98;;;;;;;10.59;58.15;102554.97;5016204;28;19913;-70
2022/01/25 07:09:02;;;;;;;45.10;20.15;;;;;;;10.60;58.23;102553.06;5014407;28;20406;-70
2022/01/25 07:11:47;;;;;;;55.35;28.27;;;;;;;10.59;57.86;102546.81;5013805;28;20421;-68
2022/01/25 07:14:32;;;;;;;40.83;17.58;;;;;;;10.57;59.25;102551.69;5015792;28;20053;-69
2022/01/25 07:17:17;;;;;;;46.28;19.65;;;;;;;10.55;57.50;102551.16;5014565;28;20054;-70
2022/01/25 07:20:06;;;;;;;33.58;16.45;;;;;;;10.61;59.70;102546.53;5012876;28;20049;-69
2022/01/25 07:22:52;;;;;;;53.25;22.30;;;;;;;10.61;59.88;102555.53;5015830;28;20049;-69
2022/01/25 07:25:37;;;;;;;54.65;28.60;;;;;;;10.57;58.24;102548.13;5013521;28;20046;-70
2022/01/25 07:28:22;;;;;;;28.88;14.90;;;;;;;10.59;60.02;102548.69;5018052;28;20038;-70
2022/01/25 07:31:07;;;;;;;61.00;23.73;;;;;;;10.58;59.84;102547.88;5015855;28;20057;-70
2022/01/25 07:33:52;;;;;;;33.22;14.88;;;;;;;10.56;60.50;102541.91;5013788;28;20041;-69
2022/01/25 07:36:38;;;;;;;31.35;17.75;;;;;;;10.57;59.92;102551.69;5018328;28;20152;-69
2022/01/25 07:39:26;;;;;;;43.92;23.80;;;;;;;10.58;59.93;102547.88;5016149;28;20044;-70
2022/01/25 07:42:11;;;;;;;42.20;22.70;;;;;;;10.59;59.64;102554.16;5013720;28;20402;-69
2022/01/25 07:45:11;;;;;;;43.83;24.52;;;;;;;10.59;59.63;102551.41;5013774;28;20034;-69
2022/01/25 07:47:56;;;;;;;48.35;21.38;;;;;;;10.57;60.82;102551.69;5015328;28;20049;-67
2022/01/25 07:50:40;;;;;;;37.45;17.55;;;;;;;10.53;58.20;102544.34;5013627;28;20516;-67
2022/01/25 07:53:25;;;;;;;42.80;23.48;;;;;;;10.51;57.03;102535.66;5016900;28;20490;-68
2022/01/25 07:56:10;;;;;;;40.38;22.67;;;;;;;10.49;56.66;102540.53;5015772;28;20045;-67
2022/01/25 07:58:55;;;;;;;38.45;21.23;;;;;;;10.49;57.71;102543.25;5013810;28;20049;-66
2022/01/25 08:01:41;;;;;;;38.58;22.52;;;;;;;10.47;56.96;102534.53;5017506;28;20042;-66
2022/01/25 08:04:27;;;;;;;40.45;23.50;;;;;;;10.44;57.65;102530.47;5015413;28;20505;-66
2022/01/25 08:07:12;;;;;;;46.42;25.15;;;;;;;10.47;57.98;102519.03;5013728;28;20045;-66
2022/01/25 08:09:57;;;;;;;48.83;25.60;;;;;;;10.43;57.97;102523.38;5011836;28;20100;-66
2022/01/25 08:12:42;;;;;;;31.92;15.52;;;;;;;10.48;59.46;102525.28;5015756;28;20037;-66
2022/01/25 08:15:28;;;;;;;32.40;15.55;;;;;;;10.49;60.26;102540.53;5013246;28;20044;-66
2022/01/25 08:18:13;;;;;;;41.08;20.45;;;;;;;10.43;60.62;102536.16;5017587;28;20449;-66
2022/01/25 08:20:58;;;;;;;26.70;12.98;;;;;;;10.48;60.49;102531.53;5015912;28;20045;-66
2022/01/25 08:23:43;;;;;;;31.60;15.38;;;;;;;10.51;60.77;102533.75;5014021;28;20037;-66
2022/01/25 08:26:28;;;;;;;31.98;17.10;;;;;;;10.52;60.42;102531.81;5011954;28;20045;-66
2022/01/25 08:29:14;;;;;;;29.60;14.10;;;;;;;10.51;60.76;102532.94;5015972;28;20044;-66
2022/01/25 08:31:58;;;;;;;46.55;22.98;;;;;;;10.52;59.82;102531.81;5014228;28;20053;-68
2022/01/25 08:34:44;;;;;;;35.70;18.98;;;;;;;10.49;60.26;102538.63;5011893;28;20049;-67
2022/01/25 08:37:29;;;;;;;34.67;17.23;;;;;;;10.54;60.91;102535.09;5015976;28;20046;-67
2022/01/25 08:40:14;;;;;;;27.02;14.05;;;;;;;10.51;60.49;102541.91;5014033;28;20038;-68
2022/01/25 08:43:00;;;;;;;31.70;17.60;;;;;;;10.55;60.71;102544.91;5012361;28;20061;-66
2022/01/25 08:45:45;;;;;;;48.08;25.70;;;;;;;10.44;59.85;102535.91;5012505;28;20034;-66
2022/01/25 08:48:31;;;;;;;36.05;19.48;;;;;;;10.48;60.22;102525.28;5014397;28;20049;-67
2022/01/25 08:51:16;;;;;;;36.83;19.80;;;;;;;10.53;60.66;102534.28;5012438;28;20048;-67
2022/01/25 08:54:01;;;;;;;35.63;17.67;;;;;;;10.47;60.44;102521.75;5018137;28;20041;-67
2022/01/25 08:56:46;;;;;;;40.85;18.63;;;;;;;10.46;59.92;102522.03;5018485;28;20046;-67
2022/01/25 08:59:31;;;;;;;34.22;19.92;;;;;;;10.42;59.04;102520.91;5016416;28;20045;-67
2022/01/25 09:02:16;;;;;;;32.50;18.05;;;;;;;10.37;59.31;102516.28;5020080;28;20041;-67
2022/01/25 09:05:00;;;;;;;36.88;20.02;;;;;;;10.44;59.28;102508.69;5017733;28;20042;-67
2022/01/25 09:07:46;;;;;;;30.13;17.90;;;;;;;10.49;60.06;102511.44;5016496;28;20056;-67
2022/01/25 09:10:31;;;;;;;33.55;17.65;;;;;;;10.53;60.02;102508.97;5018970;28;20048;-67
2022/01/25 09:13:17;;;;;;;46.75;22.83;;;;;;;10.44;59.10;102508.69;5018173;28;20056;-68
2022/01/25 09:16:03;;;;;;;35.75;20.98;;;;;;;10.37;59.01;102515.47;5016635;28;20050;-67
2022/01/25 09:18:48;;;;;;;46.92;24.55;;;;;;;10.40;59.21;102523.13;5020325;28;20050;-67
2022/01/25 09:21:34;;;;;;;29.95;15.93;;;;;;;10.41;58.82;102527.47;5017904;28;20056;-67
2022/01/25 09:24:18;;;;;;;52.70;28.92;;;;;;;10.33;58.16;102522.53;5016422;28;20048;-67
2022/01/25 09:27:07;;;;;;;33.30;19.95;;;;;;;10.28;57.98;102517.91;5020163;28;20052;-67
2022/01/25 09:29:52;;;;;;;38.88;20.85;;;;;;;10.35;57.91;102517.66;5018587;28;20064;-67
2022/01/25 09:32:37;;;;;;;35.55;19.60;;;;;;;10.33;58.50;102519.81;5016653;28;20053;-66
2022/01/25 09:35:22;;;;;;;26.90;15.27;;;;;;;10.42;59.40;102523.63;5014438;28;20077;-67
2022/01/25 09:38:07;;;;;;;27.58;15.32;;;;;;;10.44;58.90;102516.84;5018554;28;20081;-66
2022/01/25 09:40:53;;;;;;;48.90;19.50;;;;;;;10.50;59.63;102521.22;5016475;28;20053;-67
2022/01/25 09:43:38;;;;;;;51.30;25.17;;;;;;;10.49;58.25;102516.06;5014488;28;20466;-67
2022/01/25 09:46:23;;;;;;;37.13;21.55;;;;;;;10.36;57.45;102517.41;5018466;28;20068;-67
2022/01/25 09:49:08;;;;;;;30.00;13.90;;;;;;;10.41;58.73;102522.03;5016865;28;20046;-67
2022/01/25 09:51:55;;;;;;;33.17;17.17;;;;;;;10.27;57.64;102514.38;5014581;28;20050;-67
2022/01/25 09:54:41;;;;;;;37.42;20.75;;;;;;;10.38;58.84;102517.13;5017680;28;20044;-67
2022/01/25 09:57:26;;;;;;;44.92;24.17;;;;;;;10.26;58.47;102522.78;5017659;28;20068;-67
2022/01/25 10:00:14;;;;;;;41.33;19.85;;;;;;;10.24;58.77;102525.81;5018860;28;20490;-67
2022/01/25 10:03:24;;;;;;;37.42;17.70;;;;;;;10.39;59.03;102516.84;5031654;28;20056;-67
2022/01/25 10:06:16;;;;;;;49.95;26.13;;;;;;;10.38;57.96;102511.69;5030296;28;20034;-67
2022/01/25 10:09:01;;;;;;;45.55;25.05;;;;;;;10.22;56.65;102508.94;5033206;28;20409;-67
2022/01/25 10:11:46;;;;;;;26.38;13.50;;;;;;;10.49;59.99;102505.16;5029810;28;20103;-67
2022/01/25 10:14:30;;;;;;;23.50;13.10;;;;;;;10.56;59.98;102500.28;5027631;28;20042;-67
2022/01/25 10:17:28;;;;;;;;;;;;;;;10.47;57.85;102499.16;5039038;28;20053;-67
2022/01/25 10:20:32;;;;;;;68.57;32.90;;;;;;;10.36;55.96;102489.41;5036548;28;20369;-67
2022/01/25 10:23:24;;;;;;;65.25;31.08;;;;;;;10.28;56.49;102483.38;5033994;28;20048;-67
2022/01/25 10:26:09;;;;;;;52.10;28.20;;;;;;;10.26;57.11;102480.09;5036165;28;20396;-67
2022/01/25 10:28:53;;;;;;;31.98;16.73;;;;;;;10.39;58.65;102483.41;5026511;28;20037;-67
2022/01/25 10:31:41;;;;;;;34.90;15.85;;;;;;;10.44;58.69;102486.13;5032761;28;20728;-67
2022/01/25 10:34:29;;;;;;;68.45;27.42;;;;;;;10.36;57.56;102473.06;5029516;28;20394;-67
2022/01/25 10:37:23;;;;;;;57.15;29.30;;;;;;;10.34;57.18;102475.25;5029485;28;20054;-67
2022/01/25 10:40:08;;;;;;;64.82;33.42;;;;;;;10.24;57.03;102471.44;5025264;28;20042;-67
2022/01/25 10:42:53;;;;;;;54.40;28.85;;;;;;;10.19;58.04;102465.16;5036275;28;20045;-67
2022/01/25 10:45:38;;;;;;;43.38;23.23;;;;;;;10.16;58.54;102455.63;5022935;28;20029;-67
2022/01/25 10:48:30;;;;;;;55.25;26.52;;;;;;;10.25;57.80;102445.88;5031364;28;20045;-66
2022/01/25 10:51:43;;;;;;;70.07;31.77;;;;;;;10.23;58.24;102450.75;5028167;28;20041;-67
2022/01/25 10:54:27;;;;;;;71.57;35.10;;;;;;;10.24;57.36;102443.41;5025318;28;20041;-67
2022/01/25 10:57:23;;;;;;;54.53;28.38;;;;;;;10.30;58.25;102439.63;5027418;28;20042;-67
2022/01/25 11:00:11;;;;;;;;;;;;;;;10.37;58.62;102440.16;5024372;28;20490;-67
2022/01/25 11:02:56;;;;;;;56.80;29.02;;;;;;;10.47;59.14;102432.00;5030680;28;19913;-66
2022/01/25 11:05:43;;;;;;;;;;;;;;;10.50;59.28;102426.03;5023828;28;20034;-67
2022/01/25 11:08:28;;;;;;;61.28;31.85;;;;;;;10.48;59.53;102425.47;5023015;28;19917;-67
2022/01/25 11:11:33;;;;;;;70.30;35.78;;;;;;;10.36;58.86;102424.13;5017738;28;20057;-67
2022/01/25 11:17:24;;;;;;;55.53;29.02;;;;;;;10.64;59.48;102412.69;5023892;28;20049;-67
2022/01/25 11:20:09;;;;;;;71.10;32.75;;;;;;;10.62;58.47;102409.41;5021287;28;20533;-67
2022/01/25 11:22:55;;;;;;;50.33;23.85;;;;;;;10.71;59.38;102394.19;5028128;28;20049;-67
2022/01/25 11:25:40;;;;;;;83.15;36.72;;;;;;;10.76;58.50;102399.63;5029093;28;20037;-67
2022/01/25 11:28:25;;;;;;;68.25;33.45;;;;;;;10.81;58.53;102399.59;5033471;28;20503;-67
2022/01/25 11:31:20;;;;;;;69.88;32.38;;;;;;;10.85;58.55;102395.25;5030096;28;20049;-66
2022/01/25 11:34:09;;;;;;;68.43;31.60;;;;;;;10.87;58.89;102387.59;5023657;28;20052;-67
2022/01/25 11:36:56;;;;;;;60.38;29.70;;;;;;;10.94;59.08;102381.88;5029697;28;20056;-67
2022/01/25 11:39:45;;;;;;;74.20;32.63;;;;;;;11.00;58.99;102376.13;5035188;28;20074;-67
2022/01/25 11:42:36;;;;;;;82.88;36.45;;;;;;;10.97;58.19;102373.97;5033266;28;20049;-67
2022/01/25 11:45:24;;;;;;;79.18;37.28;;;;;;;10.95;58.49;102375.34;5033672;28;20083;-67
2022/01/25 11:48:09;;;;;;;65.97;33.03;;;;;;;11.00;59.35;102367.97;5034753;28;20400;-67
2022/01/25 11:50:54;;;;;;;58.72;25.70;;;;;;;10.92;58.19;102362.28;5033054;28;20054;-67
2022/01/25 11:53:42;;;;;;;59.00;28.35;;;;;;;10.94;58.64;102360.09;5036816;28;20512;-67
2022/01/25 11:56:27;;;;;;;78.22;37.55;;;;;;;10.94;57.85;102355.47;5034629;28;20033;-67
2022/01/25 11:59:13;;;;;;;55.83;27.38;;;;;;;10.98;57.63;102356.53;5033285;28;20049;-67
2022/01/25 12:01:58;;;;;;;65.45;29.98;;;;;;;11.08;59.53;102350.25;5033836;28;20402;-67
2022/01/25 12:04:45;;;;;;;55.30;27.85;;;;;;;11.12;58.62;102343.16;5034525;28;20049;-67
2022/01/25 12:07:38;;;;;;;71.85;35.33;;;;;;;11.18;58.76;102346.66;5025537;28;20037;-67
2022/01/25 12:10:37;;;;;;;64.85;31.15;;;;;;;11.31;59.14;102348.78;5036103;28;20053;-67
2022/01/25 12:13:29;;;;;;;84.13;39.78;;;;;;;11.22;57.44;102339.59;5033571;28;20041;-66
2022/01/25 12:16:29;;;;;;;68.47;34.20;;;;;;;11.26;58.22;102327.84;5030418;28;20045;-67
2022/01/25 12:19:17;;;;;;;75.65;36.55;;;;;;;11.23;57.10;102316.69;5031627;28;20497;-67
2022/01/25 12:22:01;;;;;;;82.13;39.40;;;;;;;11.18;56.89;102314.81;5031458;28;20112;-67
2022/01/25 12:25:03;;;;;;;81.47;34.90;;;;;;;11.25;56.91;102312.59;5026627;28;20032;-66
2022/01/25 12:28:05;;;;;;;87.72;37.00;;;;;;;11.20;55.99;102303.63;5030136;28;20041;-67
2022/01/25 12:30:50;;;;;;;69.47;34.33;;;;;;;11.29;56.95;102310.13;5031404;28;20042;-67
2022/01/25 12:33:35;;;;;;;57.58;28.70;;;;;;;11.18;56.13;102303.09;5035896;28;20489;-66
2022/01/25 12:36:35;;;;;;;81.10;36.17;;;;;;;11.29;56.82;102302.75;5026926;28;20048;-67
2022/01/25 12:39:34;;;;;;;74.15;36.88;;;;;;;11.31;56.30;102302.50;5029162;28;20429;-67
2022/01/25 12:42:19;;;;;;;71.68;34.92;;;;;;;11.27;56.91;102299.53;5035700;28;20053;-67
2022/01/25 12:45:04;;;;;;;60.28;30.40;;;;;;;11.23;55.93;102297.63;5027320;28;20490;-67
2022/01/25 12:47:57;;;;;;;64.97;28.85;;;;;;;11.27;56.08;102285.09;5031995;28;20045;-67
2022/01/25 12:50:44;;;;;;;81.60;37.63;;;;;;;11.21;55.21;102280.75;5032600;28;20052;-67
2022/01/25 12:53:31;;;;;;;80.40;36.25;;;;;;;11.28;56.10;102279.34;5029940;28;20045;-67
2022/01/25 12:56:21;;;;;;;83.45;35.97;;;;;;;11.37;56.37;102268.69;5039076;28;20037;-67
2022/01/25 12:59:10;;;;;;;81.70;38.13;;;;;;;11.42;56.46;102271.38;5037358;28;20053;-67
2022/01/25 13:01:58;;;;;;;91.10;38.95;;;;;;;11.44;55.71;102266.44;5035196;28;20041;-67
2022/01/25 13:04:42;;;;;;;78.45;36.08;;;;;;;11.48;55.80;102262.88;5037988;28;20048;-67
2022/01/25 13:07:27;;;;;;;64.32;32.47;;;;;;;11.61;55.54;102252.44;5037457;28;20049;-66
2022/01/25 13:10:24;;;;;;;75.88;36.53;;;;;;;11.72;54.79;102257.53;5034610;28;20060;-67
2022/01/25 13:13:44;;;;;;;81.68;35.80;;;;;;;11.74;54.67;102247.19;5038885;28;20045;-68
2022/01/25 13:16:55;;;;;;;80.32;37.55;;;;;;;11.91;53.99;102250.31;5032333;28;20044;-67
2022/01/25 13:19:45;;;;;;;70.32;34.63;;;;;;;11.89;53.28;102247.03;5028994;28;20037;-67
2022/01/25 13:22:40;;;;;;;84.43;38.22;;;;;;;11.91;53.10;102244.84;5029215;28;20049;-66
2022/01/25 13:25:26;;;;;;;67.23;29.93;;;;;;;11.91;52.68;102249.50;5037337;28;20033;-67
2022/01/25 13:28:21;;;;;;;84.93;38.47;;;;;;;11.97;52.34;102251.06;5028480;28;20394;-67
2022/01/25 13:31:11;;;;;;;79.57;37.75;;;;;;;11.96;51.69;102244.00;5033846;28;20413;-67
2022/01/25 13:34:01;;;;;;;85.32;39.13;;;;;;;12.02;51.55;102242.03;5037912;28;20053;-69
2022/01/25 13:36:46;;;;;;;90.80;38.10;;;;;;;12.07;51.50;102237.34;5036289;28;20041;-66
2022/01/25 13:39:34;;;;;;;77.35;31.88;;;;;;;11.91;51.20;102239.41;5030293;28;20034;-66
2022/01/25 13:42:27;;;;;;;101.40;42.05;;;;;;;11.87;51.44;102238.34;5036900;28;20429;-67
2022/01/25 13:48:21;;;;;;;101.65;38.03;;;;;;;11.64;51.82;102236.34;5037248;28;20045;-66
2022/01/25 13:51:12;;;;;;;85.45;38.95;;;;;;;11.61;51.43;102242.38;5023967;28;20045;-67
2022/01/25 13:54:00;;;;;;;83.63;37.22;;;;;;;11.65;51.79;102246.13;5020347;28;20068;-65
2022/01/25 13:56:45;;;;;;;84.85;37.35;;;;;;;11.72;52.07;102237.66;5036451;28;20029;-67
2022/01/25 13:59:30;;;;;;;63.70;29.15;;;;;;;11.80;52.07;102232.41;5028251;28;20045;-67
2022/01/25 14:02:15;;;;;;;58.55;26.20;;;;;;;11.88;51.72;102234.53;5028584;28;20041;-67
2022/01/25 14:05:00;;;;;;;;;;;;;;;11.97;51.38;102234.72;5027590;28;20045;-67
2022/01/25 14:07:54;;;;;;;75.95;35.85;;;;;;;12.09;51.59;102229.69;5029194;28;19913;-67
2022/01/25 14:10:44;;;;;;;83.88;34.60;;;;;;;12.00;51.77;102232.22;5020595;28;20054;-67
2022/01/25 14:25:40;;;;;;;64.20;33.15;;;;;;;12.12;50.87;102253.66;5025646;28;20030;-67
2022/01/25 14:28:25;;;;;;;74.55;33.30;;;;;;;12.13;50.73;102252.56;5028670;28;20041;-67
2022/01/25 14:31:21;;;;;;;52.83;25.00;;;;;;;12.12;50.83;102264.56;5020433;28;20046;-68
2022/01/25 14:34:06;;;;;;;60.17;30.35;;;;;;;12.07;50.99;102263.81;5024451;28;20494;-67
2022/01/25 14:36:51;;;;;;;55.72;23.90;;;;;;;11.96;50.43;102266.63;5016844;28;20034;-67
2022/01/25 14:39:41;;;;;;;46.97;22.77;;;;;;;12.32;51.72;102269.00;5018712;28;20506;-67
2022/01/25 14:42:28;;;;;;;64.40;29.95;;;;;;;12.22;51.05;102266.38;5037865;28;20045;-67
2022/01/25 14:45:20;;;;;;;61.55;30.92;;;;;;;12.16;51.09;102275.72;5026832;28;20402;-67
2022/01/25 14:48:14;;;;;;;71.60;32.53;;;;;;;11.95;51.01;102262.25;5014385;28;20414;-67
2022/01/25 14:50:59;;;;;;;66.53;32.45;;;;;;;12.01;51.46;102260.31;5025739;28;20037;-67